Time;durP1;ratioP1;P1;durP2;ratioP2;P2;SDS_P1;SDS_P2;PMS_P1;PMS_P2;Temp;Humidity;BMP_temperature;BMP_pressure;BME280_temperature;BME280_humidity;BME280_pressure;Samples;Min_cycle;Max_cycle;Signal;HPM_P1;HPM_P2
2023/04/26 00:00:19;;;;;;;5.47;3.10;;;5.50;99.90;;;;;;5074440;28;20090;-39
2023/04/26 00:02:45;;;;;;;6.45;3.35;;;5.50;99.90;;;;;;5075675;28;20029;-37
2023/04/26 00:05:11;;;;;;;5.38;2.92;;;5.50;99.90;;;;;;5073091;28;20082;-33
2023/04/26 00:07:39;;;;;;;5.70;3.15;;;5.40;99.90;;;;;;5074049;28;20485;-38
2023/04/26 00:10:06;;;;;;;6.93;3.00;;;5.40;99.90;;;;;;5068827;28;20465;-36
2023/04/26 00:12:32;;;;;;;5.22;2.97;;;5.40;99.90;;;;;;5075902;28;20610;-38
2023/04/26 00:14:58;;;;;;;11.20;3.13;;;5.40;99.90;;;;;;5075651;28;20044;-35
2023/04/26 00:17:23;;;;;;;5.95;3.05;;;5.30;99.90;;;;;;5075997;28;20024;-34
2023/04/26 00:19:49;;;;;;;5.25;2.95;;;5.30;99.90;;;;;;5075677;28;20024;-38
2023/04/26 00:22:15;;;;;;;4.68;2.42;;;5.20;99.90;;;;;;5075878;28;20021;-35
2023/04/26 00:24:42;;;;;;;6.00;3.03;;;5.20;99.90;;;;;;5075870;28;20031;-35
2023/04/26 00:27:09;;;;;;;5.15;3.15;;;5.10;99.90;;;;;;5073822;28;20024;-34
2023/04/26 00:29:36;;;;;;;6.20;2.92;;;5.20;99.90;;;;;;5072353;28;20040;-35
2023/04/26 00:32:02;;;;;;;7.60;3.25;;;5.10;99.90;;;;;;5068643;28;20393;-39
2023/04/26 00:34:34;;;;;;;8.40;3.70;;;5.10;99.90;;;;;;5068228;28;20381;-33
2023/04/26 00:37:01;;;;;;;4.25;2.40;;;5.10;99.90;;;;;;5075066;28;20138;-35
2023/04/26 00:39:26;;;;;;;4.57;2.70;;;5.20;99.90;;;;;;5062314;28;20051;-35
2023/04/26 00:41:52;;;;;;;5.63;2.80;;;5.20;99.90;;;;;;5062411;28;20397;-36
2023/04/26 00:44:18;;;;;;;7.70;2.92;;;5.20;99.90;;;;;;5073878;28;20056;-40
2023/04/26 00:46:44;;;;;;;8.95;3.40;;;5.10;99.90;;;;;;5067862;28;20496;-36
2023/04/26 00:49:15;;;;;;;5.10;2.80;;;5.10;99.90;;;;;;5060482;28;20056;-35
2023/04/26 00:51:44;;;;;;;11.77;2.97;;;5.10;99.90;;;;;;5055401;28;20029;-35
2023/04/26 00:54:11;;;;;;;6.55;3.05;;;5.00;99.90;;;;;;5066185;28;20033;-36
2023/04/26 00:56:38;;;;;;;9.93;2.75;;;4.90;99.90;;;;;;5060944;28;20533;-35
2023/04/26 00:59:04;;;;;;;5.93;2.85;;;4.90;99.90;;;;;;5075084;28;20488;-38
2023/04/26 01:01:29;;;;;;;6.18;3.25;;;4.90;99.90;;;;;;5069831;28;20029;-35
2023/04/26 01:03:56;;;;;;;4.78;2.70;;;4.90;99.90;;;;;;5054419;28;20033;-37
2023/04/26 01:06:22;;;;;;;8.73;3.13;;;4.80;99.90;;;;;;5055371;28;20524;-38
2023/04/26 01:08:52;;;;;;;13.20;3.30;;;4.80;99.90;;;;;;5056916;28;20501;-38
2023/04/26 01:11:21;;;;;;;4.90;3.17;;;4.80;99.90;;;;;;5065208;28;20111;-38
2023/04/26 01:13:47;;;;;;;12.07;3.08;;;4.80;99.90;;;;;;5071595;28;20485;-36
2023/04/26 01:16:14;;;;;;;5.88;2.78;;;4.90;99.90;;;;;;5074242;28;20040;-35
2023/04/26 01:18:40;;;;;;;6.10;2.70;;;4.80;99.90;;;;;;5058597;28;20035;-38
2023/04/26 01:21:06;;;;;;;10.45;3.15;;;4.80;99.90;;;;;;5068360;28;20103;-36
2023/04/26 01:23:31;;;;;;;5.10;2.63;;;4.80;99.90;;;;;;5071973;28;20503;-35
2023/04/26 01:25:57;;;;;;;9.70;3.10;;;4.80;99.90;;;;;;5072441;28;20062;-36
2023/04/26 01:28:23;;;;;;;6.63;3.22;;;4.90;99.90;;;;;;5070786;28;20039;-38
2023/04/26 01:30:48;;;;;;;11.43;3.65;;;4.80;99.90;;;;;;5061314;28;20455;-35
2023/04/26 01:33:14;;;;;;;11.50;3.47;;;4.80;99.90;;;;;;5058153;28;20025;-38
2023/04/26 01:35:41;;;;;;;7.00;2.42;;;4.80;99.90;;;;;;5073011;28;20425;-34
2023/04/26 01:38:07;;;;;;;7.07;2.67;;;4.80;99.90;;;;;;5060628;28;20033;-38
2023/04/26 01:40:33;;;;;;;6.13;2.72;;;4.80;99.90;;;;;;5064132;28;20024;-38
2023/04/26 01:42:59;;;;;;;8.93;2.42;;;4.80;99.90;;;;;;5063317;28;20024;-38
2023/04/26 01:45:25;;;;;;;6.50;2.30;;;4.70;99.90;;;;;;5064911;28;20029;-36
2023/04/26 01:47:50;;;;;;;5.32;2.30;;;4.70;99.90;;;;;;5065251;28;20028;-40
2023/04/26 01:50:16;;;;;;;7.53;3.08;;;4.70;99.90;;;;;;5071614;28;20028;-38
2023/04/26 01:52:42;;;;;;;4.50;2.70;;;4.60;99.90;;;;;;5066057;28;20485;-35
2023/04/26 01:55:08;;;;;;;7.50;2.33;;;4.60;99.90;;;;;;5065791;28;20056;-36
2023/04/26 01:57:33;;;;;;;7.55;2.83;;;4.60;99.90;;;;;;5072480;28;20028;-36
2023/04/26 02:00:01;;;;;;;4.72;2.88;;;4.60;99.90;;;;;;5073960;28;20017;-33
2023/04/26 02:02:26;;;;;;;6.30;2.83;;;4.60;99.90;;;;;;5070950;28;20029;-39
2023/04/26 02:04:52;;;;;;;4.60;2.97;;;4.60;99.90;;;;;;5065379;28;20461;-37
2023/04/26 02:07:18;;;;;;;6.13;2.55;;;4.60;99.90;;;;;;5064401;28;20037;-38
2023/04/26 02:09:45;;;;;;;11.20;3.38;;;4.60;99.90;;;;;;5073571;28;20078;-36
2023/04/26 02:12:11;;;;;;;8.73;3.20;;;4.50;99.90;;;;;;5072254;28;20381;-35
2023/04/26 02:14:36;;;;;;;3.60;2.35;;;4.50;99.90;;;;;;5072175;28;20031;-35
2023/04/26 02:17:03;;;;;;;12.35;3.15;;;4.50;99.90;;;;;;5071528;28;20025;-35
2023/04/26 02:19:29;;;;;;;10.18;3.13;;;4.50;99.90;;;;;;5072890;28;20032;-37
2023/04/26 02:21:57;;;;;;;5.55;3.65;;;4.50;99.90;;;;;;5070371;28;20066;-38
2023/04/26 02:24:23;;;;;;;8.38;3.63;;;4.50;99.90;;;;;;5071936;28;20024;-34
2023/04/26 02:26:50;;;;;;;6.63;3.45;;;4.50;99.90;;;;;;5073265;28;20028;-38
2023/04/26 02:29:16;;;;;;;13.43;3.92;;;4.50;99.90;;;;;;5072248;28;20501;-38
2023/04/26 02:31:41;;;;;;;5.13;3.28;;;4.50;99.90;;;;;;5073426;28;20055;-32
2023/04/26 02:34:07;;;;;;;8.50;3.80;;;4.50;99.90;;;;;;5059412;28;20021;-36
2023/04/26 02:36:33;;;;;;;6.60;3.80;;;4.50;99.90;;;;;;5056423;28;20073;-40
2023/04/26 02:38:59;;;;;;;9.40;3.30;;;4.50;99.90;;;;;;5071787;28;20111;-38
2023/04/26 02:41:24;;;;;;;6.22;3.42;;;4.50;99.90;;;;;;5072921;28;20085;-36
2023/04/26 02:43:50;;;;;;;11.07;4.43;;;4.50;99.90;;;;;;5059597;28;20024;-35
2023/04/26 02:46:17;;;;;;;7.85;3.42;;;4.50;99.90;;;;;;5054163;28;20060;-38
2023/04/26 02:48:42;;;;;;;11.27;4.03;;;4.50;99.90;;;;;;5061845;28;20028;-36
2023/04/26 02:51:08;;;;;;;14.00;3.65;;;4.50;99.90;;;;;;5072886;28;20036;-37
2023/04/26 02:53:33;;;;;;;8.38;3.20;;;4.50;99.90;;;;;;5071020;28;20392;-33
2023/04/26 02:55:59;;;;;;;4.97;3.83;;;4.40;99.90;;;;;;5072117;28;20382;-37
2023/04/26 02:58:25;;;;;;;7.95;3.80;;;4.40;99.90;;;;;;5071934;28;20017;-35
2023/04/26 03:00:53;;;;;;;7.47;3.88;;;4.30;99.90;;;;;;5072112;28;20115;-38
2023/04/26 03:03:19;;;;;;;4.53;3.30;;;4.30;99.90;;;;;;5063551;28;20493;-38
2023/04/26 03:05:45;;;;;;;9.52;3.63;;;4.20;99.90;;;;;;5062207;28;20059;-34
2023/04/26 03:08:11;;;;;;;5.65;3.28;;;4.20;99.90;;;;;;5071037;28;20025;-36
2023/04/26 03:10:36;;;;;;;5.75;3.40;;;4.10;99.90;;;;;;5061856;28;20025;-36
2023/04/26 03:13:03;;;;;;;13.13;3.55;;;4.10;99.90;;;;;;5069986;28;20425;-37
2023/04/26 03:15:29;;;;;;;8.80;3.35;;;4.10;99.90;;;;;;5070825;28;20073;-35
2023/04/26 03:17:56;;;;;;;8.93;3.28;;;4.10;99.90;;;;;;5070908;28;20416;-38
2023/04/26 03:20:23;;;;;;;5.75;3.15;;;4.10;99.90;;;;;;5078336;28;20373;-39
2023/04/26 03:22:48;;;;;;;10.90;3.53;;;4.00;99.90;;;;;;5070137;28;20029;-37
2023/04/26 03:25:15;;;;;;;6.63;3.60;;;4.00;99.90;;;;;;5071643;28;20392;-37
2023/04/26 03:27:41;;;;;;;5.75;3.55;;;4.00;99.90;;;;;;5057294;28;20032;-36
2023/04/26 03:30:07;;;;;;;16.08;3.95;;;4.00;99.90;;;;;;5077829;28;20024;-40
2023/04/26 03:32:33;;;;;;;5.95;3.05;;;4.00;99.90;;;;;;5076151;28;20099;-38
2023/04/26 03:34:58;;;;;;;7.85;3.35;;;4.00;99.90;;;;;;5079213;28;20036;-37
2023/04/26 03:37:24;;;;;;;13.27;3.95;;;4.00;99.90;;;;;;5064408;28;20032;-35
2023/04/26 03:39:52;;;;;;;8.27;3.17;;;4.00;99.90;;;;;;5077393;28;20452;-39
2023/04/26 03:42:19;;;;;;;4.85;3.30;;;4.00;99.90;;;;;;5078675;28;20082;-41
2023/04/26 03:44:44;;;;;;;8.18;3.08;;;4.00;99.90;;;;;;5077410;28;20021;-38
2023/04/26 03:47:10;;;;;;;8.30;4.05;;;4.00;99.90;;;;;;5077774;28;20024;-36
2023/04/26 03:49:36;;;;;;;10.10;3.45;;;4.10;99.90;;;;;;5077100;28;20039;-39
2023/04/26 03:52:01;;;;;;;6.93;3.33;;;4.10;99.90;;;;;;5078976;28;20032;-39
2023/04/26 03:54:27;;;;;;;8.25;3.63;;;4.10;99.90;;;;;;5076564;28;20143;-36
2023/04/26 03:56:52;;;;;;;10.02;4.03;;;4.20;99.90;;;;;;5076971;28;20386;-36
2023/04/26 03:59:19;;;;;;;11.38;4.13;;;4.20;99.90;;;;;;5078998;28;20021;-40
2023/04/26 04:01:44;;;;;;;16.80;4.40;;;4.20;99.90;;;;;;5077766;28;20025;-41
2023/04/26 04:04:10;;;;;;;8.18;3.53;;;4.20;99.90;;;;;;5073045;28;20484;-40
2023/04/26 04:06:37;;;;;;;8.90;3.33;;;4.20;99.90;;;;;;5066971;28;20032;-41
2023/04/26 04:09:04;;;;;;;9.43;4.30;;;4.20;99.90;;;;;;5072216;28;20025;-38
2023/04/26 04:11:30;;;;;;;9.73;3.77;;;4.20;99.90;;;;;;5078243;28;20129;-41
2023/04/26 04:13:55;;;;;;;8.88;3.65;;;4.20;99.90;;;;;;5078838;28;20262;-44
2023/04/26 04:16:21;;;;;;;7.63;3.35;;;4.10;99.90;;;;;;5077657;28;20465;-39
2023/04/26 04:18:47;;;;;;;8.60;4.00;;;4.00;99.90;;;;;;5075306;28;20020;-39
2023/04/26 04:21:12;;;;;;;9.45;3.60;;;4.00;99.90;;;;;;5058880;28;20025;-39
2023/04/26 04:23:38;;;;;;;9.93;3.45;;;4.00;99.90;;;;;;5065863;28;20055;-40
2023/04/26 04:26:04;;;;;;;6.72;3.67;;;3.90;99.90;;;;;;5076326;28;20028;-38
2023/04/26 04:28:31;;;;;;;10.80;4.10;;;4.00;99.90;;;;;;5061039;28;20025;-39
2023/04/26 04:30:57;;;;;;;7.80;3.90;;;4.00;99.90;;;;;;5074904;28;20028;-40
2023/04/26 04:33:24;;;;;;;11.30;3.88;;;4.00;99.90;;;;;;5072617;28;20029;-40
2023/04/26 04:35:51;;;;;;;4.57;2.95;;;4.00;99.90;;;;;;5073969;28;20055;-38
2023/04/26 04:38:17;;;;;;;11.60;3.58;;;4.10;99.90;;;;;;5056297;28;20049;-39
2023/04/26 04:40:42;;;;;;;6.90;3.40;;;4.10;99.90;;;;;;5062998;28;20089;-40
2023/04/26 04:43:09;;;;;;;5.97;3.28;;;4.10;99.90;;;;;;5075383;28;20412;-40
2023/04/26 04:45:36;;;;;;;11.10;3.80;;;4.20;99.90;;;;;;5071167;28;20697;-40
2023/04/26 04:48:04;;;;;;;8.70;4.20;;;4.20;99.90;;;;;;5054145;28;20029;-40
2023/04/26 04:50:31;;;;;;;13.07;3.75;;;4.30;99.90;;;;;;5075192;28;20027;-39
2023/04/26 04:52:56;;;;;;;9.15;3.67;;;4.40;99.90;;;;;;5072948;28;20082;-41
2023/04/26 04:55:22;;;;;;;11.52;3.22;;;4.50;99.90;;;;;;5073628;28;20025;-35
2023/04/26 04:57:48;;;;;;;9.18;3.42;;;4.60;99.90;;;;;;5074566;28;20619;-43
2023/04/26 05:00:14;;;;;;;16.00;3.80;;;4.70;99.90;;;;;;5075117;28;20028;-41
2023/04/26 05:02:40;;;;;;;9.35;3.90;;;4.80;99.90;;;;;;5065811;28;20025;-48
2023/04/26 05:05:06;;;;;;;6.72;3.88;;;4.80;99.90;;;;;;5070715;28;20037;-42
2023/04/26 05:07:32;;;;;;;7.45;3.00;;;4.90;99.90;;;;;;5074939;28;20056;-41
2023/04/26 05:09:58;;;;;;;7.03;3.65;;;5.00;99.90;;;;;;5056749;28;20063;-37
2023/04/26 05:12:24;;;;;;;6.30;3.25;;;5.20;99.90;;;;;;5059709;28;20060;-37
2023/04/26 05:14:50;;;;;;;7.22;3.10;;;5.20;99.90;;;;;;5071383;28;20433;-39
2023/04/26 05:17:16;;;;;;;7.63;3.47;;;5.40;99.90;;;;;;5073028;28;20029;-39
2023/04/26 05:19:41;;;;;;;10.68;3.90;;;5.50;99.90;;;;;;5072817;28;20465;-36
2023/04/26 05:22:07;;;;;;;9.93;3.13;;;5.60;99.90;;;;;;5071534;28;20630;-37
2023/04/26 05:24:33;;;;;;;6.28;3.03;;;5.70;99.90;;;;;;5058778;28;20054;-36
2023/04/26 05:26:59;;;;;;;5.45;2.58;;;5.70;99.90;;;;;;5071759;28;20063;-36
2023/04/26 05:29:31;;;;;;;8.05;3.10;;;5.80;99.90;;;;;;5073877;28;20071;-34
2023/04/26 05:31:56;;;;;;;6.72;2.95;;;5.80;99.90;;;;;;5074293;28;20363;-36
2023/04/26 05:34:23;;;;;;;9.43;2.92;;;5.80;99.90;;;;;;5071284;28;20025;-41
2023/04/26 05:36:49;;;;;;;5.22;2.38;;;5.90;99.90;;;;;;5071389;28;20519;-39
2023/04/26 05:39:14;;;;;;;8.10;2.97;;;6.00;99.90;;;;;;5068305;28;20033;-38
2023/04/26 05:41:41;;;;;;;8.98;2.15;;;6.00;99.90;;;;;;5064591;28;20028;-39
2023/04/26 05:44:07;;;;;;;3.72;2.33;;;6.10;99.90;;;;;;5060803;28;20150;-40
2023/04/26 05:46:32;;;;;;;7.88;2.80;;;6.20;99.90;;;;;;5066255;28;20115;-36
2023/04/26 05:48:58;;;;;;;5.47;2.53;;;6.30;99.90;;;;;;5072072;28;20032;-37
2023/04/26 05:51:23;;;;;;;8.88;2.85;;;6.50;99.90;;;;;;5072938;28;20036;-38
2023/04/26 05:53:50;;;;;;;6.70;2.42;;;6.60;99.90;;;;;;5072836;28;20025;-37
2023/04/26 05:56:16;;;;;;;6.00;2.75;;;6.80;99.90;;;;;;5069794;28;20484;-37
2023/04/26 05:58:42;;;;;;;7.63;2.47;;;6.90;99.90;;;;;;5070631;28;20120;-38
2023/04/26 06:01:08;;;;;;;5.53;2.80;;;7.00;99.90;;;;;;5061369;28;20028;-37
2023/04/26 06:03:33;;;;;;;7.75;2.45;;;7.10;99.90;;;;;;5067579;28;20020;-37
2023/04/26 06:05:59;;;;;;;7.72;2.30;;;7.20;99.90;;;;;;5070531;28;20066;-38
2023/04/26 06:08:27;;;;;;;8.25;2.38;;;7.20;99.90;;;;;;5071189;28;20364;-38
2023/04/26 06:10:53;;;;;;;5.40;2.08;;;7.30;99.90;;;;;;5069331;28;20484;-37
2023/04/26 06:13:19;;;;;;;6.88;3.13;;;7.30;99.90;;;;;;5069718;28;20485;-35
2023/04/26 06:15:44;;;;;;;8.48;2.30;;;7.30;99.90;;;;;;5055905;28;20104;-38
2023/04/26 06:18:10;;;;;;;5.10;2.38;;;7.30;99.90;;;;;;5065084;28;20059;-35
2023/04/26 06:20:35;;;;;;;8.50;1.90;;;7.40;99.90;;;;;;5072848;28;20074;-38
2023/04/26 06:23:01;;;;;;;6.55;3.00;;;7.40;99.90;;;;;;5071109;28;20051;-40
2023/04/26 06:25:27;;;;;;;3.00;2.08;;;7.50;99.90;;;;;;5069984;28;20119;-36
2023/04/26 06:27:52;;;;;;;4.32;1.83;;;7.50;99.90;;;;;;5073136;28;20039;-38
2023/04/26 06:30:18;;;;;;;5.93;1.80;;;7.60;99.90;;;;;;5062974;28;20385;-38
2023/04/26 06:32:44;;;;;;;2.78;1.77;;;7.50;99.90;;;;;;5053304;28;20516;-35
2023/04/26 06:35:10;;;;;;;4.88;1.90;;;7.40;99.90;;;;;;5053345;28;20363;-37
2023/04/26 06:37:38;;;;;;;3.63;2.17;;;7.40;99.90;;;;;;5057192;28;20029;-34
2023/04/26 06:40:04;;;;;;;1.80;1.55;;;7.50;99.90;;;;;;5054534;28;20498;-39
2023/04/26 06:42:30;;;;;;;4.05;1.77;;;7.60;99.90;;;;;;5054324;28;20037;-41
2023/04/26 06:44:56;;;;;;;4.32;2.38;;;7.60;99.90;;;;;;5061004;28;20078;-36
2023/04/26 06:47:22;;;;;;;4.85;2.13;;;7.70;99.90;;;;;;5060978;28;20024;-39
2023/04/26 06:49:47;;;;;;;3.97;2.20;;;7.80;99.90;;;;;;5061496;28;20129;-41
2023/04/26 06:52:13;;;;;;;8.15;3.03;;;7.90;99.90;;;;;;5071371;28;20064;-40
2023/04/26 06:54:39;;;;;;;6.40;2.63;;;8.00;99.90;;;;;;5072373;28;20035;-40
2023/04/26 06:57:05;;;;;;;6.35;2.20;;;8.20;99.90;;;;;;5072923;28;20039;-42
2023/04/26 06:59:30;;;;;;;3.20;2.08;;;8.30;99.90;;;;;;5071135;28;20044;-40
2023/04/26 07:01:56;;;;;;;3.28;2.13;;;8.40;99.90;;;;;;5062842;28;20112;-43
2023/04/26 07:04:21;;;;;;;9.07;2.08;;;8.50;99.90;;;;;;5067147;28;20119;-41
2023/04/26 07:06:47;;;;;;;4.68;2.15;;;8.40;99.90;;;;;;5065360;28;20032;-43
2023/04/26 07:09:13;;;;;;;7.72;2.10;;;8.50;99.90;;;;;;5063228;28;20029;-40
2023/04/26 07:11:39;;;;;;;5.90;1.77;;;8.60;99.90;;;;;;5070331;28;20033;-44
2023/04/26 07:14:04;;;;;;;3.35;2.10;;;8.70;99.90;;;;;;5064193;28;20035;-42
2023/04/26 07:16:30;;;;;;;5.35;2.45;;;8.70;99.90;;;;;;5071067;28;20431;-40
2023/04/26 07:18:59;;;;;;;6.43;2.65;;;8.70;99.90;;;;;;5063172;28;20382;-44
2023/04/26 07:21:25;;;;;;;6.57;1.88;;;8.80;99.90;;;;;;5070686;28;20055;-41
2023/04/26 07:23:57;;;;;;;6.28;2.55;;;9.00;99.90;;;;;;5072305;28;20020;-42
2023/04/26 07:26:24;;;;;;;3.15;1.83;;;9.10;99.90;;;;;;5071248;28;20039;-43
2023/04/26 07:28:51;;;;;;;5.40;2.73;;;9.20;99.90;;;;;;5071654;28;20476;-42
2023/04/26 07:31:18;;;;;;;6.38;2.45;;;9.50;99.90;;;;;;5064476;28;20060;-38
2023/04/26 07:33:43;;;;;;;5.45;2.38;;;9.70;99.90;;;;;;5052246;28;20044;-41
2023/04/26 07:36:09;;;;;;;6.57;2.13;;;9.70;99.90;;;;;;5072004;28;20099;-41
2023/04/26 07:38:35;;;;;;;6.93;2.30;;;9.70;99.90;;;;;;5060367;28;20037;-42
2023/04/26 07:41:00;;;;;;;2.97;1.83;;;9.70;99.90;;;;;;5064297;28;20096;-42
2023/04/26 07:43:26;;;;;;;4.70;2.38;;;9.60;99.90;;;;;;5069902;28;20055;-41
2023/04/26 07:45:52;;;;;;;4.45;1.55;;;9.40;99.90;;;;;;5067759;28;20029;-40
2023/04/26 07:48:18;;;;;;;1.65;1.08;;;9.40;99.90;;;;;;5058266;28;20104;-41
2023/04/26 07:50:44;;;;;;;7.90;1.00;;;9.50;99.90;;;;;;5057939;28;20049;-41
2023/04/26 07:53:09;;;;;;;2.50;1.30;;;9.30;99.90;;;;;;5057000;28;20021;-42
2023/04/26 07:55:36;;;;;;;1.58;1.10;;;9.30;99.90;;;;;;5071645;28;20078;-41
2023/04/26 07:58:02;;;;;;;1.20;0.95;;;9.30;99.90;;;;;;5070091;28;20048;-40
2023/04/26 08:00:28;;;;;;;4.25;1.30;;;9.30;99.90;;;;;;5071270;28;20381;-41
2023/04/26 08:02:54;;;;;;;4.53;1.27;;;9.10;99.90;;;;;;5064508;28;20021;-42
2023/04/26 08:05:20;;;;;;;1.38;1.00;;;8.90;99.90;;;;;;5059028;28;20033;-42
2023/04/26 08:07:45;;;;;;;3.58;1.08;;;8.90;99.90;;;;;;5063162;28;20033;-39
2023/04/26 08:10:11;;;;;;;7.03;1.13;;;8.90;99.90;;;;;;5067857;28;20028;-41
2023/04/26 08:12:37;;;;;;;6.05;1.05;;;8.90;99.90;;;;;;5075606;28;20025;-43
2023/04/26 08:15:05;;;;;;;3.70;1.40;;;8.90;99.90;;;;;;5071949;28;20017;-41
2023/04/26 08:17:31;;;;;;;3.80;1.00;;;8.80;99.90;;;;;;5060382;28;20056;-41
2023/04/26 08:19:57;;;;;;;1.95;0.70;;;8.70;99.90;;;;;;5059214;28;20311;-42
2023/04/26 08:22:23;;;;;;;1.55;0.90;;;8.60;99.90;;;;;;5055660;28;20044;-44
2023/04/26 08:24:50;;;;;;;13.23;2.35;;;8.50;99.90;;;;;;5074442;28;20036;-42
2023/04/26 08:27:17;;;;;;;2.30;1.38;;;8.40;99.90;;;;;;5075687;28;20024;-42
2023/04/26 08:29:43;;;;;;;5.22;1.42;;;8.30;99.90;;;;;;5075622;28;20055;-43
2023/04/26 08:32:09;;;;;;;2.72;1.20;;;8.30;99.90;;;;;;5075590;28;20063;-41
2023/04/26 08:34:35;;;;;;;4.28;1.10;;;8.40;99.90;;;;;;5075582;28;20020;-42
2023/04/26 08:37:00;;;;;;;5.45;1.45;;;8.50;99.90;;;;;;5063548;28;20489;-42
2023/04/26 08:39:26;;;;;;;4.70;1.25;;;8.60;99.90;;;;;;5055337;28;20120;-36
2023/04/26 08:41:57;;;;;;;3.83;0.98;;;8.70;99.90;;;;;;5069498;28;20078;-42
2023/04/26 08:44:24;;;;;;;2.53;1.45;;;8.80;99.90;;;;;;5075318;28;20067;-42
2023/04/26 08:47:05;;;;;;;4.20;1.67;;;8.90;99.90;;;;;;5066158;28;20051;-42
2023/04/26 08:49:41;;;;;;;3.92;0.95;;;9.00;99.90;;;;;;5074361;28;20066;-41
2023/04/26 08:52:11;;;;;;;3.10;1.05;;;9.10;99.90;;;;;;5075456;28;20054;-41
2023/04/26 08:54:38;;;;;;;1.30;0.90;;;9.20;99.90;;;;;;5073300;28;20052;-44
2023/04/26 08:57:08;;;;;;;1.23;1.10;;;9.20;99.90;;;;;;5070219;28;20461;-41
2023/04/26 08:59:38;;;;;;;3.90;1.30;;;9.20;99.90;;;;;;5055386;28;20552;-42
2023/04/26 09:02:09;;;;;;;2.05;1.38;;;9.40;99.90;;;;;;5055348;28;20444;-41
2023/04/26 09:04:36;;;;;;;2.17;1.23;;;9.50;99.90;;;;;;5059956;28;20481;-41
2023/04/26 09:07:06;;;;;;;3.40;1.20;;;9.60;99.90;;;;;;5074874;28;20039;-44
2023/04/26 09:09:37;;;;;;;3.72;0.95;;;9.60;99.90;;;;;;5072975;28;20141;-41
2023/04/26 09:12:03;;;;;;;2.42;1.05;;;9.80;99.90;;;;;;5053960;28;20021;-41
2023/04/26 09:14:29;;;;;;;1.38;0.80;;;9.90;99.90;;;;;;5071406;28;20492;-42
2023/04/26 09:16:55;;;;;;;7.60;1.42;;;10.00;99.90;;;;;;5071412;28;20461;-43
2023/04/26 09:19:43;;;;;;;7.63;1.77;;;10.20;99.90;;;;;;5073263;28;20031;-40
2023/04/26 09:22:09;;;;;;;7.13;1.17;;;10.50;99.90;;;;;;5072033;28;20027;-40
2023/04/26 09:24:51;;;;;;;2.25;0.90;;;10.60;99.90;;;;;;5073954;28;20100;-42
2023/04/26 09:27:18;;;;;;;5.97;1.40;;;10.80;99.90;;;;;;5071446;28;20051;-41
2023/04/26 09:30:04;;;;;;;2.03;0.85;;;10.90;99.90;;;;;;5072226;28;20040;-40
2023/04/26 09:32:42;;;;;;;1.02;0.73;;;10.60;99.90;;;;;;5072769;28;20469;-42
2023/04/26 09:35:08;;;;;;;;;;;10.50;99.90;;;;;;5072038;28;20412;-38
2023/04/26 09:37:34;;;;;;;8.40;1.00;;;10.40;99.90;;;;;;5068717;28;19991;-40
2023/04/26 09:39:59;;;;;;;2.83;1.17;;;10.30;99.90;;;;;;5073465;28;20056;-38
2023/04/26 09:42:25;;;;;;;7.28;1.15;;;10.10;99.90;;;;;;5073974;28;20033;-37
2023/04/26 09:44:53;;;;;;;3.70;0.95;;;10.00;99.90;;;;;;5073430;28;20477;-36
2023/04/26 09:47:20;;;;;;;;;;;9.80;99.90;;;;;;5062183;28;20444;-36
2023/04/26 09:49:50;;;;;;;3.38;0.93;;;9.70;99.90;;;;;;5066066;28;20353;-39
2023/04/26 09:52:17;;;;;;;2.17;0.90;;;9.60;99.90;;;;;;5059707;28;20116;-34
2023/04/26 09:54:51;;;;;;;0.80;0.77;;;9.50;99.90;;;;;;5075111;28;20469;-37
2023/04/26 09:57:18;;;;;;;3.50;0.85;;;9.50;99.90;;;;;;5073878;28;20255;-38
2023/04/26 09:59:45;;;;;;;1.50;0.90;;;9.30;99.90;;;;;;5073828;28;20023;-39
2023/04/26 10:02:15;;;;;;;4.07;1.52;;;9.20;99.90;;;;;;5071263;28;20085;-33
2023/04/26 10:04:44;;;;;;;5.25;1.38;;;8.90;99.90;;;;;;5062270;28;20035;-37
2023/04/26 10:07:11;;;;;;;4.25;1.98;;;8.80;99.90;;;;;;5072393;28;20024;-32
2023/04/26 10:09:37;;;;;;;2.05;1.40;;;8.60;99.90;;;;;;5071308;28;20494;-40
2023/04/26 10:12:04;;;;;;;2.58;1.23;;;8.50;99.90;;;;;;5071623;28;20103;-33
2023/04/26 10:14:30;;;;;;;5.30;1.60;;;8.40;99.90;;;;;;5071216;28;20070;-42
2023/04/26 10:16:57;;;;;;;4.85;1.77;;;8.30;99.90;;;;;;5064716;28;20036;-43
2023/04/26 10:19:23;;;;;;;5.40;1.33;;;8.20;99.90;;;;;;5069833;28;20052;-39
2023/04/26 10:21:50;;;;;;;3.15;1.50;;;8.20;99.90;;;;;;5068729;28;20041;-37
2023/04/26 10:24:16;;;;;;;4.28;1.25;;;8.20;99.90;;;;;;5053554;28;20033;-41
2023/04/26 10:26:51;;;;;;;5.75;1.33;;;8.30;99.90;;;;;;5052643;28;20029;-40
2023/04/26 10:29:18;;;;;;;2.67;1.23;;;8.40;99.90;;;;;;5059339;28;20028;-41
2023/04/26 10:32:05;;;;;;;7.43;1.75;;;8.50;99.90;;;;;;5069248;28;20102;-43
2023/04/26 10:34:32;;;;;;;2.50;1.33;;;8.50;99.90;;;;;;5067429;28;20120;-39
2023/04/26 10:37:10;;;;;;;1.48;0.93;;;8.50;99.90;;;;;;5053270;28;20091;-41
2023/04/26 10:39:40;;;;;;;5.07;0.95;;;8.60;99.90;;;;;;5062071;28;20044;-41
2023/04/26 10:42:29;;;;;;;10.13;1.70;;;8.70;99.90;;;;;;5066809;28;20500;-40
2023/04/26 10:44:57;;;;;;;4.68;1.13;;;8.90;99.90;;;;;;5057684;28;20111;-42
2023/04/26 10:47:31;;;;;;;3.97;1.08;;;9.00;99.90;;;;;;5066761;28;20516;-40
2023/04/26 10:50:08;;;;;;;2.35;1.35;;;9.20;99.90;;;;;;5065919;28;20032;-42
2023/04/26 10:52:35;;;;;;;6.00;1.40;;;9.30;99.90;;;;;;5052888;28;20048;-40
2023/04/26 10:55:01;;;;;;;3.70;1.40;;;9.40;99.90;;;;;;5053296;28;20385;-41
2023/04/26 10:57:48;;;;;;;2.50;1.15;;;9.60;99.90;;;;;;5069128;28;20468;-41
2023/04/26 11:00:25;;;;;;;3.78;1.15;;;9.60;99.90;;;;;;5072871;28;20107;-42
2023/04/26 11:02:51;;;;;;;4.95;1.00;;;9.70;99.90;;;;;;5072968;28;20507;-42
2023/04/26 11:05:33;;;;;;;5.28;1.30;;;9.90;99.90;;;;;;5073041;28;20032;-43
2023/04/26 11:08:30;;;;;;;5.32;0.93;;;10.00;99.90;;;;;;5072951;28;20475;-41
2023/04/26 11:11:02;;;;;;;14.88;1.48;;;10.00;99.90;;;;;;5065564;28;20078;-41
2023/04/26 11:13:32;;;;;;;2.53;1.00;;;10.20;99.90;;;;;;5055304;28;20355;-37
2023/04/26 11:16:03;;;;;;;2.05;1.30;;;10.50;99.90;;;;;;5065792;28;20050;-36
2023/04/26 11:18:30;;;;;;;1.60;1.38;;;10.90;99.90;;;;;;5065829;28;20025;-31
2023/04/26 11:20:56;;;;;;;2.38;1.33;;;11.30;99.90;;;;;;5065618;28;20116;-37
2023/04/26 11:23:23;;;;;;;7.32;1.67;;;11.50;99.90;;;;;;5052549;28;20505;-35
2023/04/26 11:25:49;;;;;;;3.00;1.55;;;11.50;99.90;;;;;;5053174;28;20048;-36
2023/04/26 11:28:15;;;;;;;4.25;1.25;;;11.30;99.90;;;;;;5060197;28;20020;-38
2023/04/26 11:30:42;;;;;;;2.92;1.33;;;11.40;99.90;;;;;;5067025;28;21635;-41
2023/04/26 11:33:19;;;;;;;1.80;1.23;;;11.50;99.90;;;;;;5064098;28;20054;-40
2023/04/26 11:35:51;;;;;;;4.22;1.33;;;11.40;99.90;;;;;;5071928;28;20619;-39
2023/04/26 11:38:20;;;;;;;1.10;1.00;;;11.20;99.90;;;;;;5054869;28;20471;-40
2023/04/26 11:40:53;;;;;;;1.50;1.40;;;11.00;99.90;;;;;;5074006;28;20033;-35
2023/04/26 11:43:19;;;;;;;2.15;1.23;;;10.90;99.90;;;;;;5057305;28;20029;-38
2023/04/26 11:45:45;;;;;;;3.83;1.48;;;10.80;99.90;;;;;;5056367;28;20035;-40
2023/04/26 11:48:11;;;;;;;1.15;0.90;;;10.80;99.90;;;;;;5060845;28;20150;-40
2023/04/26 11:50:38;;;;;;;10.20;1.20;;;10.80;99.90;;;;;;5071846;28;20058;-42
2023/04/26 11:53:08;;;;;;;6.38;1.17;;;10.80;99.90;;;;;;5073649;28;20032;-41
2023/04/26 11:55:35;;;;;;;5.07;1.40;;;11.00;99.90;;;;;;5073965;28;20028;-43
2023/04/26 11:58:10;;;;;;;1.33;0.87;;;11.20;99.90;;;;;;5056214;28;20397;-41
2023/04/26 12:00:35;;;;;;;1.15;0.98;;;11.20;99.90;;;;;;5075280;28;20028;-41
2023/04/26 12:03:10;;;;;;;2.30;1.33;;;11.30;99.90;;;;;;5072237;28;20031;-41
2023/04/26 12:05:35;;;;;;;3.75;0.80;;;11.40;99.90;;;;;;5067272;28;20468;-41
2023/04/26 12:08:01;;;;;;;1.63;1.05;;;11.50;99.90;;;;;;5068262;28;20032;-44
2023/04/26 12:10:37;;;;;;;4.43;1.48;;;11.60;99.90;;;;;;5070769;28;20368;-38
2023/04/26 12:13:02;;;;;;;0.93;0.90;;;11.30;99.90;;;;;;5075510;28;20500;-41
2023/04/26 12:15:33;;;;;;;2.30;1.02;;;11.30;99.90;;;;;;5073221;28;20029;-40
2023/04/26 12:18:07;;;;;;;1.38;1.27;;;11.30;99.90;;;;;;5070921;28;20438;-40
2023/04/26 12:20:34;;;;;;;7.18;1.27;;;11.40;99.90;;;;;;5062140;28;20021;-41
2023/04/26 12:23:13;;;;;;;1.58;1.13;;;11.50;99.90;;;;;;5075430;28;20431;-40
2023/04/26 12:25:40;;;;;;;1.50;1.02;;;11.70;99.90;;;;;;5075775;28;20546;-40
2023/04/26 12:28:12;;;;;;;3.23;1.00;;;12.00;99.90;;;;;;5075759;28;20470;-41
2023/04/26 12:30:38;;;;;;;5.95;1.10;;;12.20;99.90;;;;;;5075889;28;20477;-41
2023/04/26 12:33:05;;;;;;;6.68;1.40;;;12.40;99.90;;;;;;5075554;28;20519;-41
2023/04/26 12:35:31;;;;;;;3.75;1.30;;;12.50;99.90;;;;;;5075232;28;20460;-41
2023/04/26 12:37:59;;;;;;;5.43;0.90;;;12.50;99.90;;;;;;5074944;28;20446;-45
2023/04/26 12:40:25;;;;;;;;;;;12.50;99.90;;;;;;5075543;28;20066;-42
2023/04/26 12:42:51;;;;;;;1.25;1.15;;;12.20;99.90;;;;;;5069054;28;20021;-43
2023/04/26 12:45:18;;;;;;;3.05;1.00;;;12.00;99.90;;;;;;5072771;28;20050;-45
2023/04/26 12:47:47;;;;;;;1.13;0.85;;;11.90;99.90;;;;;;5072151;28;20021;-44
2023/04/26 12:50:13;;;;;;;1.45;0.80;;;12.00;99.90;;;;;;5070235;28;20024;-42
2023/04/26 12:52:40;;;;;;;1.25;1.00;;;12.10;99.90;;;;;;5068663;28;20488;-41
2023/04/26 12:55:07;;;;;;;2.95;1.10;;;12.10;99.90;;;;;;5067033;28;20059;-39